Airfield :
LOGIN :

Register | Disclaimer

   EN    FR    IT 

 










Legend :    VFR   Marginal VFR   IFR   Intensive IFR   Very Intensive IFR
Visi :
Ceiling :
>= 8 km
>= 3000ft
5 to 8 km
1000 to 3000 ft
1500m to 5 km
500 to 1000 ft
800 to 1500m
200 to 500 ft
< 800m
< 200 ft
Symbols :   Thunderstorms  Fog  Heavy snow  Heavy precipitations  Wind > 20 kt
SIGMETs :     Misc.  Thunderstorms  Icing  Turbulence  Mountain Waves  Volcanic Ashes






- Airport Elevation : 143 ft


LGEL - Elefsis

CURRENT METAR :
  • 230720Z 35012G22KT 9999 FEW025 23/11 Q1019

EXPIRED METARs :
  • 230650Z 34008KT 9999 FEW025 22/13 Q1019
  • 230620Z 34007KT 9999 FEW025 21/13 Q1019
  • 230550Z 34006KT 9999 FEW025 20/13 Q1019
  • 230520Z 35010KT 9999 FEW025 20/13 Q1018
  • 230450Z 34010KT 9999 FEW018 20/13 Q1018

TAF TAF LGEL
Valid from the 23 at 06:00 until the 24 at 06:00 UTC


230500Z 2306/2406 35012KT 9999 FEW020
TEMPO 2308/2316 34015G25KT



MET'MAP, your aeronautical weather chart ! - Copyright ORBIFLY December 2007 - Disclaimer

ORBIFLY MET'MAP TEAM :

Programming & Development : Alexandra Zaïnal
Concept & Development : Baudouin d'Aumeries
Co-Development & Prog : Marc-Olivier Méhu
Technical & hardware support : Manuel Goepfert

Contact : metmap@orbifly.com




SOURCES & CREDITS :

   NOAA